Station Historical Data
Daily Summary for July 13, 2017 Units:  Both    English   Metric
« Previous Day
Next Day »
Daily Weekly Monthly Yearly Custom
  High: Low: Average:
Temperature: 80.2 °F /  26.8 °C 63.8 °F /  17.7 °C 72.8 °F /  22.7 °C
Dew Point: 71.6 °F /  22 °C 61.7 °F /  16.5 °C 68.4 °F /  20.2 °C
Humidity: 95% 72% 86%
Wind Speed: 10.0mph /  16.1km/h - 2.6mph /  4.2km/h
Wind Gust: 15.0mph /  24.1km/h - -
Wind- - SSE
Pressure: 29.99 in /  1015.5 hPa 29.90 in /  1012.4 hPa -
Precipitation: 0.00 in /  0 mm    
Historical Graphs
 
 
Tabular Data for July 13, 2017
Time Temperature Dew Point Pressure Wind Wind Speed Wind Gust Humidity Rainfall Rate (Hourly)
00:04 74.8 °F /  23.8 °C 71.3 °F /  21.8 °C 29.90in /  1012.4hPa WSW 5.0mph /  8km/h 12.0mph /  19.3km/h 89% 0.04in /  1.02mm
00:09 74.8 °F /  23.8 °C 71.0 °F /  21.7 °C 29.91in /  1012.8hPa West 7.0mph /  11.3km/h 13.0mph /  20.9km/h 88% 0.02in /  0.51mm
00:14 74.8 °F /  23.8 °C 71.0 °F /  21.7 °C 29.91in /  1012.8hPa West 5.0mph /  8km/h 11.0mph /  17.7km/h 88% 0.01in /  0.25mm
00:19 74.9 °F /  23.8 °C 71.1 °F /  21.7 °C 29.91in /  1012.8hPa West 6.0mph /  9.7km/h 11.0mph /  17.7km/h 88% 0.00in /  0mm
00:24 74.9 °F /  23.8 °C 70.8 °F /  21.6 °C 29.90in /  1012.4hPa WSW 5.0mph /  8km/h 11.0mph /  17.7km/h 87% 0.00in /  0mm
00:29 74.9 °F /  23.8 °C 70.8 °F /  21.6 °C 29.90in /  1012.4hPa SW 5.0mph /  8km/h 9.0mph /  14.5km/h 87% 0.00in /  0mm
00:34 74.9 °F /  23.8 °C 70.8 °F /  21.6 °C 29.90in /  1012.4hPa WSW 4.0mph /  6.4km/h 14.0mph /  22.5km/h 87% 0.00in /  0mm
00:39 75.0 °F /  23.9 °C 70.9 °F /  21.6 °C 29.90in /  1012.4hPa West 9.0mph /  14.5km/h 10.0mph /  16.1km/h 87% 0.00in /  0mm
00:44 74.9 °F /  23.8 °C 70.8 °F /  21.6 °C 29.90in /  1012.4hPa WNW 7.0mph /  11.3km/h 9.0mph /  14.5km/h 87% 0.00in /  0mm
00:49 74.9 °F /  23.8 °C 70.8 °F /  21.6 °C 29.90in /  1012.4hPa West 5.0mph /  8km/h 15.0mph /  24.1km/h 87% 0.00in /  0mm
00:54 74.9 °F /  23.8 °C 70.8 °F /  21.6 °C 29.90in /  1012.4hPa West 5.0mph /  8km/h 15.0mph /  24.1km/h 87% 0.00in /  0mm
00:59 75.1 °F /  23.9 °C 70.6 °F /  21.4 °C 29.90in /  1012.4hPa West 5.0mph /  8km/h 12.0mph /  19.3km/h 86% 0.00in /  0mm
01:04 75.3 °F /  24.1 °C 70.8 °F /  21.6 °C 29.90in /  1012.4hPa West 5.0mph /  8km/h 12.0mph /  19.3km/h 86% 0.00in /  0mm
01:09 75.6 °F /  24.2 °C 71.1 °F /  21.7 °C 29.90in /  1012.4hPa WSW 5.0mph /  8km/h 13.0mph /  20.9km/h 86% 0.00in /  0mm
01:14 75.7 °F /  24.3 °C 70.9 °F /  21.6 °C 29.90in /  1012.4hPa West 5.0mph /  8km/h 13.0mph /  20.9km/h 85% 0.00in /  0mm
01:19 75.8 °F /  24.3 °C 71.0 °F /  21.7 °C 29.91in /  1012.8hPa West 5.0mph /  8km/h 13.0mph /  20.9km/h 85% 0.00in /  0mm
01:24 75.8 °F /  24.3 °C 70.6 °F /  21.4 °C 29.90in /  1012.4hPa WNW 2.0mph /  3.2km/h 9.0mph /  14.5km/h 84% 0.00in /  0mm
01:29 75.8 °F /  24.3 °C 71.0 °F /  21.7 °C 29.91in /  1012.8hPa West 8.0mph /  12.9km/h 9.0mph /  14.5km/h 85% 0.00in /  0mm
01:34 75.7 °F /  24.3 °C 70.9 °F /  21.6 °C 29.90in /  1012.4hPa West 4.0mph /  6.4km/h 10.0mph /  16.1km/h 85% 0.00in /  0mm
01:39 75.7 °F /  24.3 °C 70.5 °F /  21.4 °C 29.91in /  1012.8hPa West 5.0mph /  8km/h 12.0mph /  19.3km/h 84% 0.00in /  0mm
01:44 75.8 °F /  24.3 °C 70.6 °F /  21.4 °C 29.91in /  1012.8hPa West 2.0mph /  3.2km/h 8.0mph /  12.9km/h 84% 0.00in /  0mm
01:49 75.9 °F /  24.4 °C 70.4 °F /  21.3 °C 29.90in /  1012.4hPa West 4.0mph /  6.4km/h 9.0mph /  14.5km/h 83% 0.00in /  0mm
01:54 76.0 °F /  24.4 °C 70.5 °F /  21.4 °C 29.90in /  1012.4hPa West 4.0mph /  6.4km/h 10.0mph /  16.1km/h 83% 0.00in /  0mm
01:59 75.9 °F /  24.4 °C 70.4 °F /  21.3 °C 29.91in /  1012.8hPa West 5.0mph /  8km/h 10.0mph /  16.1km/h 83% 0.00in /  0mm
02:04 75.9 °F /  24.4 °C 70.0 °F /  21.1 °C 29.91in /  1012.8hPa West 3.0mph /  4.8km/h 8.0mph /  12.9km/h 82% 0.00in /  0mm
02:09 76.0 °F /  24.4 °C 70.5 °F /  21.4 °C 29.91in /  1012.8hPa West 3.0mph /  4.8km/h 6.0mph /  9.7km/h 83% 0.00in /  0mm
02:14 75.9 °F /  24.4 °C 70.4 °F /  21.3 °C 29.92in /  1013.1hPa WNW 2.0mph /  3.2km/h 6.0mph /  9.7km/h 83% 0.00in /  0mm
02:19 75.8 °F /  24.3 °C 70.3 °F /  21.3 °C 29.92in /  1013.1hPa West 3.0mph /  4.8km/h 6.0mph /  9.7km/h 83% 0.00in /  0mm
02:24 75.7 °F /  24.3 °C 70.2 °F /  21.2 °C 29.92in /  1013.1hPa West 3.0mph /  4.8km/h 8.0mph /  12.9km/h 83% 0.00in /  0mm
02:29 75.6 °F /  24.2 °C 70.4 °F /  21.3 °C 29.92in /  1013.1hPa West 3.0mph /  4.8km/h 8.0mph /  12.9km/h 84% 0.00in /  0mm
02:34 75.5 °F /  24.2 °C 70.3 °F /  21.3 °C 29.92in /  1013.1hPa West 3.0mph /  4.8km/h 6.0mph /  9.7km/h 84% 0.00in /  0mm
02:39 75.4 °F /  24.1 °C 70.2 °F /  21.2 °C 29.92in /  1013.1hPa West 3.0mph /  4.8km/h 6.0mph /  9.7km/h 84% 0.00in /  0mm
02:44 75.4 °F /  24.1 °C 70.2 °F /  21.2 °C 29.92in /  1013.1hPa West 1.0mph /  1.6km/h 5.0mph /  8km/h 84% 0.00in /  0mm
02:49 75.3 °F /  24.1 °C 70.1 °F /  21.2 °C 29.92in /  1013.1hPa WSW 3.0mph /  4.8km/h 4.0mph /  6.4km/h 84% 0.00in /  0mm
02:54 75.1 °F /  23.9 °C 69.9 °F /  21.1 °C 29.92in /  1013.1hPa West 3.0mph /  4.8km/h 3.0mph /  4.8km/h 84% 0.00in /  0mm
02:59 75.1 °F /  23.9 °C 70.3 °F /  21.3 °C 29.91in /  1012.8hPa West 1.0mph /  1.6km/h 5.0mph /  8km/h 85% 0.00in /  0mm
03:04 75.0 °F /  23.9 °C 70.2 °F /  21.2 °C 29.92in /  1013.1hPa Calm   3.0mph /  4.8km/h 85% 0.00in /  0mm
03:09 74.9 °F /  23.8 °C 70.1 °F /  21.2 °C 29.92in /  1013.1hPa Calm   3.0mph /  4.8km/h 85% 0.00in /  0mm
03:14 74.8 °F /  23.8 °C 70.3 °F /  21.3 °C 29.92in /  1013.1hPa WSW 2.0mph /  3.2km/h 3.0mph /  4.8km/h 86% 0.00in /  0mm
03:19 74.8 °F /  23.8 °C 70.3 °F /  21.3 °C 29.92in /  1013.1hPa WSW 1.0mph /  1.6km/h 3.0mph /  4.8km/h 86% 0.00in /  0mm
03:24 74.8 °F /  23.8 °C 70.3 °F /  21.3 °C 29.92in /  1013.1hPa WSW 1.0mph /  1.6km/h 3.0mph /  4.8km/h 86% 0.00in /  0mm
03:29 74.7 °F /  23.7 °C 70.2 °F /  21.2 °C 29.92in /  1013.1hPa WSW 1.0mph /  1.6km/h 3.0mph /  4.8km/h 86% 0.00in /  0mm
03:34 74.6 °F /  23.7 °C 70.1 °F /  21.2 °C 29.92in /  1013.1hPa West 1.0mph /  1.6km/h 4.0mph /  6.4km/h 86% 0.00in /  0mm
03:39 74.7 °F /  23.7 °C 70.2 °F /  21.2 °C 29.92in /  1013.1hPa West 1.0mph /  1.6km/h 4.0mph /  6.4km/h 86% 0.00in /  0mm
03:44 74.7 °F /  23.7 °C 70.2 °F /  21.2 °C 29.92in /  1013.1hPa West 1.0mph /  1.6km/h 3.0mph /  4.8km/h 86% 0.00in /  0mm
03:49 74.6 °F /  23.7 °C 70.1 °F /  21.2 °C 29.92in /  1013.1hPa WSW 1.0mph /  1.6km/h 3.0mph /  4.8km/h 86% 0.00in /  0mm
03:54 74.7 °F /  23.7 °C 70.2 °F /  21.2 °C 29.92in /  1013.1hPa Calm   2.0mph /  3.2km/h 86% 0.00in /  0mm
03:59 74.6 °F /  23.7 °C 70.1 °F /  21.2 °C 29.92in /  1013.1hPa West 1.0mph /  1.6km/h 3.0mph /  4.8km/h 86% 0.00in /  0mm
04:04 74.6 °F /  23.7 °C 70.1 °F /  21.2 °C 29.92in /  1013.1hPa Calm   2.0mph /  3.2km/h 86% 0.00in /  0mm
04:09 74.5 °F /  23.6 °C 70.0 °F /  21.1 °C 29.92in /  1013.1hPa Calm   1.0mph /  1.6km/h 86% 0.00in /  0mm
04:14 74.4 °F /  23.6 °C 69.9 °F /  21.1 °C 29.92in /  1013.1hPa Calm     86% 0.00in /  0mm
04:19 74.3 °F /  23.5 °C 70.2 °F /  21.2 °C 29.92in /  1013.1hPa Calm     87% 0.00in /  0mm
04:24 74.2 °F /  23.4 °C 70.1 °F /  21.2 °C 29.92in /  1013.1hPa Calm     87% 0.00in /  0mm
04:29 74.1 °F /  23.4 °C 70.0 °F /  21.1 °C 29.92in /  1013.1hPa Calm   2.0mph /  3.2km/h 87% 0.00in /  0mm
04:34 74.0 °F /  23.3 °C 70.2 °F /  21.2 °C 29.92in /  1013.1hPa Calm   2.0mph /  3.2km/h 88% 0.00in /  0mm
04:39 73.9 °F /  23.3 °C 70.1 °F /  21.2 °C 29.92in /  1013.1hPa Calm     88% 0.00in /  0mm
04:44 73.8 °F /  23.2 °C 70.0 °F /  21.1 °C 29.92in /  1013.1hPa Calm     88% 0.00in /  0mm
04:49 73.7 °F /  23.2 °C 69.9 °F /  21.1 °C 29.92in /  1013.1hPa Calm     88% 0.00in /  0mm
04:54 73.5 °F /  23.1 °C 69.7 °F /  20.9 °C 29.92in /  1013.1hPa Calm     88% 0.00in /  0mm
04:59 73.3 °F /  22.9 °C 69.9 °F /  21.1 °C 29.92in /  1013.1hPa Calm     89% 0.00in /  0mm
05:04 73.2 °F /  22.9 °C 69.8 °F /  21 °C 29.92in /  1013.1hPa Calm     89% 0.00in /  0mm
05:09 73.1 °F /  22.8 °C 69.7 °F /  20.9 °C 29.92in /  1013.1hPa Calm     89% 0.00in /  0mm
05:14 73.0 °F /  22.8 °C 69.6 °F /  20.9 °C 29.92in /  1013.1hPa Calm     89% 0.00in /  0mm
05:19 72.8 °F /  22.7 °C 69.4 °F /  20.8 °C 29.92in /  1013.1hPa Calm     89% 0.00in /  0mm
05:24 72.5 °F /  22.5 °C 69.4 °F /  20.8 °C 29.92in /  1013.1hPa Calm     90% 0.00in /  0mm
05:29 72.2 °F /  22.3 °C 69.1 °F /  20.6 °C 29.92in /  1013.1hPa Calm     90% 0.00in /  0mm
05:34 72.1 °F /  22.3 °C 69.0 °F /  20.6 °C 29.92in /  1013.1hPa Calm     90% 0.00in /  0mm
05:39 71.9 °F /  22.2 °C 68.8 °F /  20.4 °C 29.92in /  1013.1hPa Calm     90% 0.00in /  0mm
05:44 71.7 °F /  22.1 °C 68.9 °F /  20.5 °C 29.92in /  1013.1hPa Calm     91% 0.00in /  0mm
05:49 71.7 °F /  22.1 °C 68.9 °F /  20.5 °C 29.92in /  1013.1hPa Calm     91% 0.00in /  0mm
05:54 71.7 °F /  22.1 °C 68.9 °F /  20.5 °C 29.92in /  1013.1hPa Calm     91% 0.00in /  0mm
05:59 71.7 °F /  22.1 °C 68.9 °F /  20.5 °C 29.92in /  1013.1hPa Calm     91% 0.00in /  0mm
06:04 71.9 °F /  22.2 °C 69.4 °F /  20.8 °C 29.92in /  1013.1hPa Calm     92% 0.00in /  0mm
06:09 72.1 °F /  22.3 °C 69.6 °F /  20.9 °C 29.92in /  1013.1hPa Calm     92% 0.00in /  0mm
06:14 72.2 °F /  22.3 °C 69.7 °F /  20.9 °C 29.92in /  1013.1hPa Calm     92% 0.00in /  0mm
06:19 72.3 °F /  22.4 °C 69.8 °F /  21 °C 29.93in /  1013.4hPa Calm     92% 0.00in /  0mm
06:24 72.4 °F /  22.4 °C 69.9 °F /  21.1 °C 29.93in /  1013.4hPa Calm     92% 0.00in /  0mm
06:29 72.4 °F /  22.4 °C 69.9 °F /  21.1 °C 29.93in /  1013.4hPa Calm     92% 0.00in /  0mm
06:34 72.5 °F /  22.5 °C 70.0 °F /  21.1 °C 29.93in /  1013.4hPa Calm   3.0mph /  4.8km/h 92% 0.00in /  0mm
06:39 72.5 °F /  22.5 °C 69.7 °F /  20.9 °C 29.94in /  1013.8hPa Calm   2.0mph /  3.2km/h 91% 0.00in /  0mm
06:44 72.6 °F /  22.6 °C 69.8 °F /  21 °C 29.94in /  1013.8hPa Calm     91% 0.00in /  0mm
06:49 72.5 °F /  22.5 °C 69.7 °F /  20.9 °C 29.94in /  1013.8hPa Calm     91% 0.00in /  0mm
06:54 72.4 °F /  22.4 °C 69.6 °F /  20.9 °C 29.94in /  1013.8hPa NE 2.0mph /  3.2km/h 8.0mph /  12.9km/h 91% 0.00in /  0mm
06:59 72.1 °F /  22.3 °C 69.3 °F /  20.7 °C 29.94in /  1013.8hPa NE 2.0mph /  3.2km/h 5.0mph /  8km/h 91% 0.00in /  0mm
07:04 71.8 °F /  22.1 °C 69.0 °F /  20.6 °C 29.94in /  1013.8hPa NE 2.0mph /  3.2km/h 7.0mph /  11.3km/h 91% 0.00in /  0mm
07:09 71.6 °F /  22 °C 68.8 °F /  20.4 °C 29.93in /  1013.4hPa NE 3.0mph /  4.8km/h 7.0mph /  11.3km/h 91% 0.00in /  0mm
07:14 71.6 °F /  22 °C 68.8 °F /  20.4 °C 29.93in /  1013.4hPa NE 3.0mph /  4.8km/h 7.0mph /  11.3km/h 91% 0.00in /  0mm
07:19 71.6 °F /  22 °C 69.2 °F /  20.7 °C 29.93in /  1013.4hPa NE 3.0mph /  4.8km/h 7.0mph /  11.3km/h 92% 0.00in /  0mm
07:24 71.7 °F /  22.1 °C 69.3 °F /  20.7 °C 29.93in /  1013.4hPa NE 3.0mph /  4.8km/h 7.0mph /  11.3km/h 92% 0.00in /  0mm
07:29 71.7 °F /  22.1 °C 69.3 °F /  20.7 °C 29.94in /  1013.8hPa NE 3.0mph /  4.8km/h 4.0mph /  6.4km/h 92% 0.00in /  0mm
07:34 71.7 °F /  22.1 °C 69.3 °F /  20.7 °C 29.93in /  1013.4hPa NE 1.0mph /  1.6km/h 4.0mph /  6.4km/h 92% 0.00in /  0mm
07:39 71.9 °F /  22.2 °C 69.4 °F /  20.8 °C 29.93in /  1013.4hPa NE 2.0mph /  3.2km/h 4.0mph /  6.4km/h 92% 0.00in /  0mm
07:44 71.9 °F /  22.2 °C 69.4 °F /  20.8 °C 29.93in /  1013.4hPa NE 2.0mph /  3.2km/h 8.0mph /  12.9km/h 92% 0.00in /  0mm
07:49 71.8 °F /  22.1 °C 69.3 °F /  20.7 °C 29.93in /  1013.4hPa ENE 3.0mph /  4.8km/h 9.0mph /  14.5km/h 92% 0.00in /  0mm
07:54 71.4 °F /  21.9 °C 69.0 °F /  20.6 °C 29.93in /  1013.4hPa NE 1.0mph /  1.6km/h 8.0mph /  12.9km/h 92% 0.00in /  0mm
07:59 71.2 °F /  21.8 °C 68.8 °F /  20.4 °C 29.93in /  1013.4hPa ENE 7.0mph /  11.3km/h 7.0mph /  11.3km/h 92% 0.00in /  0mm
08:04 70.7 °F /  21.5 °C 67.9 °F /  19.9 °C 29.93in /  1013.4hPa NE 3.0mph /  4.8km/h 8.0mph /  12.9km/h 91% 0.00in /  0mm
08:09 70.3 °F /  21.3 °C 67.9 °F /  19.9 °C 29.94in /  1013.8hPa NE 3.0mph /  4.8km/h 8.0mph /  12.9km/h 92% 0.00in /  0mm
08:14 69.8 °F /  21 °C 67.1 °F /  19.5 °C 29.94in /  1013.8hPa NE 3.0mph /  4.8km/h 9.0mph /  14.5km/h 91% 0.00in /  0mm
08:19 69.0 °F /  20.6 °C 66.3 °F /  19.1 °C 29.94in /  1013.8hPa NE 3.0mph /  4.8km/h 9.0mph /  14.5km/h 91% 0.00in /  0mm
08:24 68.5 °F /  20.3 °C 66.1 °F /  18.9 °C 29.94in /  1013.8hPa NE 4.0mph /  6.4km/h 8.0mph /  12.9km/h 92% 0.00in /  0mm
08:29 68.2 °F /  20.1 °C 65.8 °F /  18.8 °C 29.94in /  1013.8hPa NE 10.0mph /  16.1km/h 13.0mph /  20.9km/h 92% 0.00in /  0mm
08:34 67.7 °F /  19.8 °C 65.3 °F /  18.5 °C 29.93in /  1013.4hPa NE 5.0mph /  8km/h 13.0mph /  20.9km/h 92% 0.00in /  0mm
08:39 67.4 °F /  19.7 °C 65.0 °F /  18.3 °C 29.93in /  1013.4hPa NE 6.0mph /  9.7km/h 13.0mph /  20.9km/h 92% 0.00in /  0mm
08:44 67.1 °F /  19.5 °C 64.7 °F /  18.2 °C 29.94in /  1013.8hPa NE 4.0mph /  6.4km/h 11.0mph /  17.7km/h 92% 0.00in /  0mm
08:49 66.8 °F /  19.3 °C 64.4 °F /  18 °C 29.93in /  1013.4hPa NE 9.0mph /  14.5km/h 13.0mph /  20.9km/h 92% 0.00in /  0mm
08:54 66.5 °F /  19.2 °C 64.1 °F /  17.8 °C 29.93in /  1013.4hPa NE 2.0mph /  3.2km/h 9.0mph /  14.5km/h 92% 0.00in /  0mm
08:59 66.3 °F /  19.1 °C 63.9 °F /  17.7 °C 29.94in /  1013.8hPa ENE 7.0mph /  11.3km/h 7.0mph /  11.3km/h 92% 0.00in /  0mm
09:04 66.3 °F /  19.1 °C 63.9 °F /  17.7 °C 29.94in /  1013.8hPa NE 3.0mph /  4.8km/h 7.0mph /  11.3km/h 92% 0.02in /  0.51mm
09:09 66.3 °F /  19.1 °C 64.2 °F /  17.9 °C 29.94in /  1013.8hPa NE 4.0mph /  6.4km/h 11.0mph /  17.7km/h 93% 0.04in /  1.02mm
09:14 66.2 °F /  19 °C 63.8 °F /  17.7 °C 29.94in /  1013.8hPa NE 6.0mph /  9.7km/h 15.0mph /  24.1km/h 92% 0.04in /  1.02mm
09:19 65.9 °F /  18.8 °C 63.5 °F /  17.5 °C 29.95in /  1014.1hPa NE 5.0mph /  8km/h 15.0mph /  24.1km/h 92% 0.15in /  3.81mm
09:24 65.8 °F /  18.8 °C 63.4 °F /  17.4 °C 29.95in /  1014.1hPa NE 4.0mph /  6.4km/h 13.0mph /  20.9km/h 92% 0.22in /  5.59mm
09:29 65.5 °F /  18.6 °C 63.1 °F /  17.3 °C 29.96in /  1014.4hPa NNW 3.0mph /  4.8km/h 13.0mph /  20.9km/h 92% 0.27in /  6.86mm
09:34 65.2 °F /  18.4 °C 62.8 °F /  17.1 °C 29.95in /  1014.1hPa NNE 4.0mph /  6.4km/h 13.0mph /  20.9km/h 92% 0.41in /  10.41mm
09:39 64.9 °F /  18.3 °C 62.8 °F /  17.1 °C 29.95in /  1014.1hPa NNE 4.0mph /  6.4km/h 10.0mph /  16.1km/h 93% 0.52in /  13.21mm
09:44 64.7 °F /  18.2 °C 62.6 °F /  17 °C 29.96in /  1014.4hPa NNE 3.0mph /  4.8km/h 10.0mph /  16.1km/h 93% 0.66in /  16.76mm
09:49 64.5 °F /  18.1 °C 62.4 °F /  16.9 °C 29.96in /  1014.4hPa NE 3.0mph /  4.8km/h 14.0mph /  22.5km/h 93% 0.90in /  22.86mm
09:54 64.2 °F /  17.9 °C 62.1 °F /  16.7 °C 29.96in /  1014.4hPa NNW 6.0mph /  9.7km/h 7.0mph /  11.3km/h 93% 1.05in /  26.67mm
09:59 64.1 °F /  17.8 °C 62.0 °F /  16.7 °C 29.96in /  1014.4hPa NNE 2.0mph /  3.2km/h 9.0mph /  14.5km/h 93% 1.14in /  28.96mm
10:04 64.1 °F /  17.8 °C 62.0 °F /  16.7 °C 29.96in /  1014.4hPa NE 3.0mph /  4.8km/h 9.0mph /  14.5km/h 93% 1.22in /  30.99mm
10:09 64.2 °F /  17.9 °C 62.1 °F /  16.7 °C 29.97in /  1014.8hPa Calm   6.0mph /  9.7km/h 93% 1.28in /  32.51mm
10:14 64.1 °F /  17.8 °C 62.0 °F /  16.7 °C 29.97in /  1014.8hPa Calm   3.0mph /  4.8km/h 93% 1.34in /  34.04mm
10:19 64.1 °F /  17.8 °C 62.0 °F /  16.7 °C 29.98in /  1015.1hPa NE 2.0mph /  3.2km/h 3.0mph /  4.8km/h 93% 1.31in /  33.27mm
10:24 64.0 °F /  17.8 °C 61.9 °F /  16.6 °C 29.98in /  1015.1hPa Calm   2.0mph /  3.2km/h 93% 1.29in /  32.77mm
10:29 63.8 °F /  17.7 °C 61.7 °F /  16.5 °C 29.98in /  1015.1hPa NE 1.0mph /  1.6km/h 6.0mph /  9.7km/h 93% 1.31in /  33.27mm
10:34 63.9 °F /  17.7 °C 61.8 °F /  16.6 °C 29.98in /  1015.1hPa NE 2.0mph /  3.2km/h 6.0mph /  9.7km/h 93% 1.27in /  32.26mm
10:39 64.0 °F /  17.8 °C 61.9 °F /  16.6 °C 29.99in /  1015.5hPa East 2.0mph /  3.2km/h 5.0mph /  8km/h 93% 1.30in /  33.02mm
10:44 64.0 °F /  17.8 °C 62.2 °F /  16.8 °C 29.98in /  1015.1hPa East 2.0mph /  3.2km/h 3.0mph /  4.8km/h 94% 1.27in /  32.26mm
10:49 64.1 °F /  17.8 °C 62.3 °F /  16.8 °C 29.98in /  1015.1hPa ENE 1.0mph /  1.6km/h 4.0mph /  6.4km/h 94% 1.11in /  28.19mm
10:54 64.2 °F /  17.9 °C 62.4 °F /  16.9 °C 29.98in /  1015.1hPa SE 2.0mph /  3.2km/h 4.0mph /  6.4km/h 94% 1.11in /  28.19mm
11:04 64.4 °F /  18 °C 62.6 °F /  17 °C 29.99in /  1015.5hPa SSW 3.0mph /  4.8km/h 8.0mph /  12.9km/h 94% 1.05in /  26.67mm
11:09 64.6 °F /  18.1 °C 62.8 °F /  17.1 °C 29.99in /  1015.5hPa South 3.0mph /  4.8km/h 8.0mph /  12.9km/h 94% 1.04in /  26.42mm
11:14 64.8 °F /  18.2 °C 63.0 °F /  17.2 °C 29.99in /  1015.5hPa SSW 1.0mph /  1.6km/h 5.0mph /  8km/h 94% 1.05in /  26.67mm
11:19 65.1 °F /  18.4 °C 63.3 °F /  17.4 °C 29.99in /  1015.5hPa ESE 4.0mph /  6.4km/h 5.0mph /  8km/h 94% 1.09in /  27.69mm
11:24 65.3 °F /  18.5 °C 63.5 °F /  17.5 °C 29.98in /  1015.1hPa SSE 3.0mph /  4.8km/h 5.0mph /  8km/h 94% 1.15in /  29.21mm
11:29 66.7 °F /  19.3 °C 65.2 °F /  18.4 °C 29.97in /  1014.8hPa SSE 4.0mph /  6.4km/h 6.0mph /  9.7km/h 95% 1.15in /  29.21mm
11:34 67.7 °F /  19.8 °C 66.2 °F /  19 °C 29.95in /  1014.1hPa SSE 4.0mph /  6.4km/h 9.0mph /  14.5km/h 95% 1.08in /  27.43mm
11:39 68.2 °F /  20.1 °C 66.7 °F /  19.3 °C 29.95in /  1014.1hPa SE 4.0mph /  6.4km/h 10.0mph /  16.1km/h 95% 0.96in /  24.38mm
11:44 68.5 °F /  20.3 °C 66.7 °F /  19.3 °C 29.96in /  1014.4hPa SSE 3.0mph /  4.8km/h 10.0mph /  16.1km/h 94% 0.85in /  21.59mm
11:49 68.7 °F /  20.4 °C 67.2 °F /  19.6 °C 29.96in /  1014.4hPa SSE 2.0mph /  3.2km/h 6.0mph /  9.7km/h 95% 0.78in /  19.81mm
11:54 69.0 °F /  20.6 °C 67.2 °F /  19.6 °C 29.96in /  1014.4hPa South 2.0mph /  3.2km/h 6.0mph /  9.7km/h 94% 0.63in /  16mm
11:59 69.6 °F /  20.9 °C 68.1 °F /  20.1 °C 29.96in /  1014.4hPa South 2.0mph /  3.2km/h 6.0mph /  9.7km/h 95% 0.53in /  13.46mm
12:04 70.1 °F /  21.2 °C 68.6 °F /  20.3 °C 29.96in /  1014.4hPa South 3.0mph /  4.8km/h 7.0mph /  11.3km/h 95% 0.50in /  12.7mm
12:09 70.6 °F /  21.4 °C 68.8 °F /  20.4 °C 29.96in /  1014.4hPa South 2.0mph /  3.2km/h 7.0mph /  11.3km/h 94% 0.44in /  11.18mm
12:14 70.8 °F /  21.6 °C 68.7 °F /  20.4 °C 29.96in /  1014.4hPa SW 2.0mph /  3.2km/h 4.0mph /  6.4km/h 93% 0.37in /  9.4mm
12:19 71.1 °F /  21.7 °C 69.0 °F /  20.6 °C 29.97in /  1014.8hPa South 3.0mph /  4.8km/h 4.0mph /  6.4km/h 93% 0.25in /  6.35mm
12:24 71.2 °F /  21.8 °C 69.1 °F /  20.6 °C 29.97in /  1014.8hPa SW 4.0mph /  6.4km/h 4.0mph /  6.4km/h 93% 0.14in /  3.56mm
12:29 71.5 °F /  21.9 °C 69.1 °F /  20.6 °C 29.96in /  1014.4hPa SW 1.0mph /  1.6km/h 4.0mph /  6.4km/h 92% 0.07in /  1.78mm
12:34 71.7 °F /  22.1 °C 69.3 °F /  20.7 °C 29.97in /  1014.8hPa SW 1.0mph /  1.6km/h 5.0mph /  8km/h 92% 0.04in /  1.02mm
12:39 71.9 °F /  22.2 °C 69.1 °F /  20.6 °C 29.97in /  1014.8hPa WSW 1.0mph /  1.6km/h 4.0mph /  6.4km/h 91% 0.02in /  0.51mm
12:44 72.1 °F /  22.3 °C 69.0 °F /  20.6 °C 29.97in /  1014.8hPa SW 2.0mph /  3.2km/h 4.0mph /  6.4km/h 90% 0.02in /  0.51mm
12:49 72.4 °F /  22.4 °C 69.3 °F /  20.7 °C 29.96in /  1014.4hPa SW 1.0mph /  1.6km/h 4.0mph /  6.4km/h 90% 0.01in /  0.25mm
12:54 73.6 °F /  23.1 °C 70.5 °F /  21.4 °C 29.97in /  1014.8hPa SSW 2.0mph /  3.2km/h 5.0mph /  8km/h 90% 0.01in /  0.25mm
12:59 73.7 °F /  23.2 °C 69.9 °F /  21.1 °C 29.97in /  1014.8hPa SSW 3.0mph /  4.8km/h 5.0mph /  8km/h 88% 0.00in /  0mm
13:04 73.4 °F /  23 °C 69.0 °F /  20.6 °C 29.97in /  1014.8hPa SSW 2.0mph /  3.2km/h 5.0mph /  8km/h 86% 0.00in /  0mm
13:09 73.1 °F /  22.8 °C 69.0 °F /  20.6 °C 29.97in /  1014.8hPa SSW 2.0mph /  3.2km/h 5.0mph /  8km/h 87% 0.00in /  0mm
13:14 72.7 °F /  22.6 °C 68.3 °F /  20.2 °C 29.97in /  1014.8hPa SW 2.0mph /  3.2km/h 5.0mph /  8km/h 86% 0.00in /  0mm
13:19 72.8 °F /  22.7 °C 68.7 °F /  20.4 °C 29.97in /  1014.8hPa SW 1.0mph /  1.6km/h 2.0mph /  3.2km/h 87% 0.00in /  0mm
13:24 72.9 °F /  22.7 °C 68.8 °F /  20.4 °C 29.97in /  1014.8hPa Calm   3.0mph /  4.8km/h 87% 0.00in /  0mm
13:29 73.3 °F /  22.9 °C 68.9 °F /  20.5 °C 29.97in /  1014.8hPa SSW 1.0mph /  1.6km/h 4.0mph /  6.4km/h 86% 0.00in /  0mm
13:34 74.2 °F /  23.4 °C 70.1 °F /  21.2 °C 29.97in /  1014.8hPa SW 1.0mph /  1.6km/h 3.0mph /  4.8km/h 87% 0.00in /  0mm
13:39 74.5 °F /  23.6 °C 69.7 °F /  20.9 °C 29.97in /  1014.8hPa WSW 1.0mph /  1.6km/h 3.0mph /  4.8km/h 85% 0.00in /  0mm
13:44 74.2 °F /  23.4 °C 69.1 °F /  20.6 °C 29.97in /  1014.8hPa SW 2.0mph /  3.2km/h 5.0mph /  8km/h 84% 0.00in /  0mm
13:49 74.0 °F /  23.3 °C 69.2 °F /  20.7 °C 29.97in /  1014.8hPa SW 3.0mph /  4.8km/h 5.0mph /  8km/h 85% 0.00in /  0mm
13:54 74.3 °F /  23.5 °C 69.5 °F /  20.8 °C 29.96in /  1014.4hPa WSW 2.0mph /  3.2km/h 5.0mph /  8km/h 85% 0.00in /  0mm
13:59 74.5 °F /  23.6 °C 69.7 °F /  20.9 °C 29.96in /  1014.4hPa WSW 2.0mph /  3.2km/h 5.0mph /  8km/h 85% 0.00in /  0mm
14:04 74.9 °F /  23.8 °C 69.7 °F /  20.9 °C 29.97in /  1014.8hPa Calm   6.0mph /  9.7km/h 84% 0.00in /  0mm
14:09 74.9 °F /  23.8 °C 69.4 °F /  20.8 °C 29.97in /  1014.8hPa WSW 5.0mph /  8km/h 7.0mph /  11.3km/h 83% 0.00in /  0mm
14:14 75.1 °F /  23.9 °C 69.6 °F /  20.9 °C 29.97in /  1014.8hPa SW 3.0mph /  4.8km/h 7.0mph /  11.3km/h 83% 0.00in /  0mm
14:19 75.0 °F /  23.9 °C 69.8 °F /  21 °C 29.97in /  1014.8hPa WSW 4.0mph /  6.4km/h 6.0mph /  9.7km/h 84% 0.00in /  0mm
14:24 74.9 °F /  23.8 °C 69.7 °F /  20.9 °C 29.97in /  1014.8hPa Calm   7.0mph /  11.3km/h 84% 0.00in /  0mm
14:29 75.2 °F /  24 °C 70.4 °F /  21.3 °C 29.97in /  1014.8hPa SW 3.0mph /  4.8km/h 7.0mph /  11.3km/h 85% 0.00in /  0mm
14:34 75.6 °F /  24.2 °C 70.1 °F /  21.2 °C 29.97in /  1014.8hPa SW 4.0mph /  6.4km/h 7.0mph /  11.3km/h 83% 0.00in /  0mm
14:39 75.9 °F /  24.4 °C 70.4 °F /  21.3 °C 29.97in /  1014.8hPa SSW 6.0mph /  9.7km/h 11.0mph /  17.7km/h 83% 0.00in /  0mm
14:44 76.1 °F /  24.5 °C 70.2 °F /  21.2 °C 29.97in /  1014.8hPa SW 5.0mph /  8km/h 11.0mph /  17.7km/h 82% 0.00in /  0mm
14:49 76.3 °F /  24.6 °C 70.4 °F /  21.3 °C 29.97in /  1014.8hPa SW 4.0mph /  6.4km/h 9.0mph /  14.5km/h 82% 0.00in /  0mm
14:54 76.7 °F /  24.8 °C 70.8 °F /  21.6 °C 29.97in /  1014.8hPa SW 5.0mph /  8km/h 10.0mph /  16.1km/h 82% 0.00in /  0mm
14:59 77.7 °F /  25.4 °C 71.4 °F /  21.9 °C 29.97in /  1014.8hPa SW 5.0mph /  8km/h 12.0mph /  19.3km/h 81% 0.00in /  0mm
15:04 78.7 °F /  25.9 °C 71.6 °F /  22 °C 29.97in /  1014.8hPa WNW 3.0mph /  4.8km/h 12.0mph /  19.3km/h 79% 0.00in /  0mm
15:09 78.3 °F /  25.7 °C 71.2 °F /  21.8 °C 29.97in /  1014.8hPa SW 7.0mph /  11.3km/h 10.0mph /  16.1km/h 79% 0.00in /  0mm
15:14 78.3 °F /  25.7 °C 70.9 °F /  21.6 °C 29.97in /  1014.8hPa WSW 6.0mph /  9.7km/h 11.0mph /  17.7km/h 78% 0.00in /  0mm
15:19 78.9 °F /  26.1 °C 70.7 °F /  21.5 °C 29.97in /  1014.8hPa WSW 6.0mph /  9.7km/h 12.0mph /  19.3km/h 76% 0.00in /  0mm
15:24 78.1 °F /  25.6 °C 70.3 °F /  21.3 °C 29.97in /  1014.8hPa SW 6.0mph /  9.7km/h 10.0mph /  16.1km/h 77% 0.00in /  0mm
15:29 78.3 °F /  25.7 °C 70.9 °F /  21.6 °C 29.97in /  1014.8hPa SW 4.0mph /  6.4km/h 9.0mph /  14.5km/h 78% 0.00in /  0mm
15:34 78.9 °F /  26.1 °C 71.5 °F /  21.9 °C 29.96in /  1014.4hPa WNW 2.0mph /  3.2km/h 8.0mph /  12.9km/h 78% 0.00in /  0mm
15:39 79.4 °F /  26.3 °C 71.2 °F /  21.8 °C 29.96in /  1014.4hPa Calm   7.0mph /  11.3km/h 76% 0.00in /  0mm
15:44 79.0 °F /  26.1 °C 70.8 °F /  21.6 °C 29.96in /  1014.4hPa NW 3.0mph /  4.8km/h 7.0mph /  11.3km/h 76% 0.00in /  0mm
15:49 78.4 °F /  25.8 °C 70.2 °F /  21.2 °C 29.96in /  1014.4hPa WSW 3.0mph /  4.8km/h 7.0mph /  11.3km/h 76% 0.00in /  0mm
15:54 78.7 °F /  25.9 °C 70.5 °F /  21.4 °C 29.96in /  1014.4hPa SW 4.0mph /  6.4km/h 9.0mph /  14.5km/h 76% 0.00in /  0mm
15:59 78.6 °F /  25.9 °C 70.8 °F /  21.6 °C 29.95in /  1014.1hPa SW 4.0mph /  6.4km/h 9.0mph /  14.5km/h 77% 0.00in /  0mm
16:04 78.9 °F /  26.1 °C 71.1 °F /  21.7 °C 29.95in /  1014.1hPa SW 4.0mph /  6.4km/h 8.0mph /  12.9km/h 77% 0.00in /  0mm
16:09 78.5 °F /  25.8 °C 70.3 °F /  21.3 °C 29.95in /  1014.1hPa SW 9.0mph /  14.5km/h 9.0mph /  14.5km/h 76% 0.00in /  0mm
16:14 78.2 °F /  25.7 °C 70.8 °F /  21.6 °C 29.95in /  1014.1hPa SW 5.0mph /  8km/h 10.0mph /  16.1km/h 78% 0.00in /  0mm
16:19 78.0 °F /  25.6 °C 70.6 °F /  21.4 °C 29.95in /  1014.1hPa SW 5.0mph /  8km/h 10.0mph /  16.1km/h 78% 0.00in /  0mm
16:24 78.9 °F /  26.1 °C 71.1 °F /  21.7 °C 29.95in /  1014.1hPa SW 4.0mph /  6.4km/h 9.0mph /  14.5km/h 77% 0.00in /  0mm
16:29 79.2 °F /  26.2 °C 70.6 °F /  21.4 °C 29.95in /  1014.1hPa WSW 5.0mph /  8km/h 9.0mph /  14.5km/h 75% 0.00in /  0mm
16:34 78.9 °F /  26.1 °C 71.1 °F /  21.7 °C 29.95in /  1014.1hPa WSW 4.0mph /  6.4km/h 9.0mph /  14.5km/h 77% 0.00in /  0mm
16:39 78.5 °F /  25.8 °C 71.1 °F /  21.7 °C 29.95in /  1014.1hPa WSW 4.0mph /  6.4km/h 9.0mph /  14.5km/h 78% 0.00in /  0mm
16:44 79.1 °F /  26.2 °C 71.3 °F /  21.8 °C 29.95in /  1014.1hPa SSW 2.0mph /  3.2km/h 7.0mph /  11.3km/h 77% 0.00in /  0mm
16:49 79.0 °F /  26.1 °C 70.4 °F /  21.3 °C 29.95in /  1014.1hPa WSW 2.0mph /  3.2km/h 8.0mph /  12.9km/h 75% 0.00in /  0mm
16:54 78.7 °F /  25.9 °C 70.1 °F /  21.2 °C 29.94in /  1013.8hPa WSW 4.0mph /  6.4km/h 8.0mph /  12.9km/h 75% 0.00in /  0mm
16:59 79.6 °F /  26.4 °C 70.6 °F /  21.4 °C 29.95in /  1014.1hPa WSW 4.0mph /  6.4km/h 8.0mph /  12.9km/h 74% 0.00in /  0mm
17:04 79.4 °F /  26.3 °C 69.6 °F /  20.9 °C 29.94in /  1013.8hPa West 3.0mph /  4.8km/h 8.0mph /  12.9km/h 72% 0.00in /  0mm
17:09 79.8 °F /  26.6 °C 70.4 °F /  21.3 °C 29.94in /  1013.8hPa SW 2.0mph /  3.2km/h 7.0mph /  11.3km/h 73% 0.00in /  0mm
17:14 79.5 °F /  26.4 °C 70.1 °F /  21.2 °C 29.94in /  1013.8hPa West 3.0mph /  4.8km/h 9.0mph /  14.5km/h 73% 0.00in /  0mm
17:19 80.2 °F /  26.8 °C 70.4 °F /  21.3 °C 29.94in /  1013.8hPa West 3.0mph /  4.8km/h 8.0mph /  12.9km/h 72% 0.00in /  0mm
17:24 79.3 °F /  26.3 °C 69.9 °F /  21.1 °C 29.94in /  1013.8hPa West 3.0mph /  4.8km/h 8.0mph /  12.9km/h 73% 0.00in /  0mm
17:29 79.2 °F /  26.2 °C 69.8 °F /  21 °C 29.94in /  1013.8hPa WSW 3.0mph /  4.8km/h 7.0mph /  11.3km/h 73% 0.00in /  0mm
17:34 79.1 °F /  26.2 °C 69.7 °F /  20.9 °C 29.94in /  1013.8hPa SW 3.0mph /  4.8km/h 7.0mph /  11.3km/h 73% 0.00in /  0mm
17:39 79.2 °F /  26.2 °C 69.8 °F /  21 °C 29.94in /  1013.8hPa WSW 3.0mph /  4.8km/h 7.0mph /  11.3km/h 73% 0.00in /  0mm
17:44 78.9 °F /  26.1 °C 69.9 °F /  21.1 °C 29.94in /  1013.8hPa WSW 3.0mph /  4.8km/h 6.0mph /  9.7km/h 74% 0.00in /  0mm
17:49 78.4 °F /  25.8 °C 69.8 °F /  21 °C 29.94in /  1013.8hPa SSW 2.0mph /  3.2km/h 7.0mph /  11.3km/h 75% 0.00in /  0mm
17:54 78.0 °F /  25.6 °C 69.8 °F /  21 °C 29.94in /  1013.8hPa SSW 3.0mph /  4.8km/h 6.0mph /  9.7km/h 76% 0.00in /  0mm
17:59 77.7 °F /  25.4 °C 69.5 °F /  20.8 °C 29.94in /  1013.8hPa West 3.0mph /  4.8km/h 6.0mph /  9.7km/h 76% 0.00in /  0mm
18:04 77.6 °F /  25.3 °C 69.4 °F /  20.8 °C 29.94in /  1013.8hPa West 5.0mph /  8km/h 6.0mph /  9.7km/h 76% 0.00in /  0mm
18:09 77.4 °F /  25.2 °C 69.6 °F /  20.9 °C 29.94in /  1013.8hPa WSW 2.0mph /  3.2km/h 6.0mph /  9.7km/h 77% 0.00in /  0mm
18:14 77.3 °F /  25.2 °C 69.5 °F /  20.8 °C 29.94in /  1013.8hPa West 2.0mph /  3.2km/h 4.0mph /  6.4km/h 77% 0.00in /  0mm
18:19 77.2 °F /  25.1 °C 69.4 °F /  20.8 °C 29.94in /  1013.8hPa SW 4.0mph /  6.4km/h 6.0mph /  9.7km/h 77% 0.00in /  0mm
18:24 77.0 °F /  25 °C 69.2 °F /  20.7 °C 29.94in /  1013.8hPa SW 2.0mph /  3.2km/h 6.0mph /  9.7km/h 77% 0.00in /  0mm
18:29 76.9 °F /  24.9 °C 69.1 °F /  20.6 °C 29.94in /  1013.8hPa SW 2.0mph /  3.2km/h 5.0mph /  8km/h 77% 0.00in /  0mm
18:34 76.9 °F /  24.9 °C 69.1 °F /  20.6 °C 29.94in /  1013.8hPa WSW 2.0mph /  3.2km/h 4.0mph /  6.4km/h 77% 0.00in /  0mm
18:39 77.0 °F /  25 °C 69.6 °F /  20.9 °C 29.94in /  1013.8hPa Calm   3.0mph /  4.8km/h 78% 0.00in /  0mm
18:44 77.0 °F /  25 °C 69.6 °F /  20.9 °C 29.94in /  1013.8hPa Calm   4.0mph /  6.4km/h 78% 0.00in /  0mm
18:49 76.9 °F /  24.9 °C 69.5 °F /  20.8 °C 29.94in /  1013.8hPa SW 2.0mph /  3.2km/h 5.0mph /  8km/h 78% 0.00in /  0mm
18:54 76.7 °F /  24.8 °C 69.7 °F /  20.9 °C 29.95in /  1014.1hPa SW 2.0mph /  3.2km/h 5.0mph /  8km/h 79% 0.00in /  0mm
18:59 76.6 °F /  24.8 °C 69.6 °F /  20.9 °C 29.94in /  1013.8hPa SW 2.0mph /  3.2km/h 4.0mph /  6.4km/h 79% 0.00in /  0mm
19:04 76.4 °F /  24.7 °C 69.8 °F /  21 °C 29.94in /  1013.8hPa SW 1.0mph /  1.6km/h 3.0mph /  4.8km/h 80% 0.00in /  0mm
19:09 75.9 °F /  24.4 °C 69.3 °F /  20.7 °C 29.94in /  1013.8hPa Calm   4.0mph /  6.4km/h 80% 0.00in /  0mm
19:14 75.0 °F /  23.9 °C 68.8 °F /  20.4 °C 29.94in /  1013.8hPa NE 3.0mph /  4.8km/h 4.0mph /  6.4km/h 81% 0.00in /  0mm
19:19 74.5 °F /  23.6 °C 69.0 °F /  20.6 °C 29.94in /  1013.8hPa North 2.0mph /  3.2km/h 4.0mph /  6.4km/h 83% 0.00in /  0mm
19:24 74.2 °F /  23.4 °C 68.7 °F /  20.4 °C 29.94in /  1013.8hPa NNE 2.0mph /  3.2km/h 4.0mph /  6.4km/h 83% 0.00in /  0mm
19:29 73.9 °F /  23.3 °C 68.4 °F /  20.2 °C 29.94in /  1013.8hPa NNE 2.0mph /  3.2km/h 7.0mph /  11.3km/h 83% 0.00in /  0mm
19:34 73.7 °F /  23.2 °C 68.2 °F /  20.1 °C 29.94in /  1013.8hPa NE 2.0mph /  3.2km/h 7.0mph /  11.3km/h 83% 0.00in /  0mm
19:39 73.4 °F /  23 °C 67.9 °F /  19.9 °C 29.93in /  1013.4hPa ENE 4.0mph /  6.4km/h 8.0mph /  12.9km/h 83% 0.00in /  0mm
19:44 73.3 °F /  22.9 °C 68.2 °F /  20.1 °C 29.93in /  1013.4hPa ENE 5.0mph /  8km/h 8.0mph /  12.9km/h 84% 0.00in /  0mm
19:49 73.0 °F /  22.8 °C 67.9 °F /  19.9 °C 29.94in /  1013.8hPa NE 2.0mph /  3.2km/h 6.0mph /  9.7km/h 84% 0.00in /  0mm
19:54 72.8 °F /  22.7 °C 67.7 °F /  19.8 °C 29.94in /  1013.8hPa NE 4.0mph /  6.4km/h 7.0mph /  11.3km/h 84% 0.00in /  0mm
19:59 72.9 °F /  22.7 °C 67.8 °F /  19.9 °C 29.93in /  1013.4hPa NE 3.0mph /  4.8km/h 7.0mph /  11.3km/h 84% 0.00in /  0mm
20:04 72.9 °F /  22.7 °C 68.1 °F /  20.1 °C 29.93in /  1013.4hPa ENE 4.0mph /  6.4km/h 6.0mph /  9.7km/h 85% 0.00in /  0mm
20:09 72.9 °F /  22.7 °C 68.1 °F /  20.1 °C 29.93in /  1013.4hPa NE 1.0mph /  1.6km/h 7.0mph /  11.3km/h 85% 0.00in /  0mm
20:14 72.9 °F /  22.7 °C 68.1 °F /  20.1 °C 29.93in /  1013.4hPa ENE 1.0mph /  1.6km/h 8.0mph /  12.9km/h 85% 0.00in /  0mm
20:19 72.9 °F /  22.7 °C 68.1 °F /  20.1 °C 29.93in /  1013.4hPa ENE 2.0mph /  3.2km/h 7.0mph /  11.3km/h 85% 0.00in /  0mm
20:24 72.9 °F /  22.7 °C 68.1 °F /  20.1 °C 29.93in /  1013.4hPa ENE 3.0mph /  4.8km/h 7.0mph /  11.3km/h 85% 0.00in /  0mm
20:29 72.8 °F /  22.7 °C 68.0 °F /  20 °C 29.93in /  1013.4hPa ENE 3.0mph /  4.8km/h 8.0mph /  12.9km/h 85% 0.00in /  0mm
20:34 72.7 °F /  22.6 °C 67.9 °F /  19.9 °C 29.93in /  1013.4hPa ENE 4.0mph /  6.4km/h 8.0mph /  12.9km/h 85% 0.00in /  0mm
20:39 72.7 °F /  22.6 °C 67.9 °F /  19.9 °C 29.93in /  1013.4hPa ENE 4.0mph /  6.4km/h 5.0mph /  8km/h 85% 0.00in /  0mm
20:44 72.8 °F /  22.7 °C 68.0 °F /  20 °C 29.93in /  1013.4hPa East 2.0mph /  3.2km/h 6.0mph /  9.7km/h 85% 0.00in /  0mm
20:49 72.7 °F /  22.6 °C 68.3 °F /  20.2 °C 29.93in /  1013.4hPa NE 4.0mph /  6.4km/h 5.0mph /  8km/h 86% 0.00in /  0mm
20:54 72.6 °F /  22.6 °C 68.2 °F /  20.1 °C 29.93in /  1013.4hPa ENE 2.0mph /  3.2km/h 5.0mph /  8km/h 86% 0.00in /  0mm
20:59 72.4 °F /  22.4 °C 68.0 °F /  20 °C 29.93in /  1013.4hPa ENE 2.0mph /  3.2km/h 5.0mph /  8km/h 86% 0.00in /  0mm
21:04 72.3 °F /  22.4 °C 67.9 °F /  19.9 °C 29.93in /  1013.4hPa East 2.0mph /  3.2km/h 5.0mph /  8km/h 86% 0.00in /  0mm
21:09 72.3 °F /  22.4 °C 67.9 °F /  19.9 °C 29.93in /  1013.4hPa East 1.0mph /  1.6km/h 5.0mph /  8km/h 86% 0.00in /  0mm
21:14 72.1 °F /  22.3 °C 67.7 °F /  19.8 °C 29.93in /  1013.4hPa ENE 1.0mph /  1.6km/h 5.0mph /  8km/h 86% 0.00in /  0mm
21:19 72.0 °F /  22.2 °C 67.6 °F /  19.8 °C 29.93in /  1013.4hPa ENE 2.0mph /  3.2km/h 4.0mph /  6.4km/h 86% 0.00in /  0mm
21:24 71.9 °F /  22.2 °C 67.5 °F /  19.7 °C 29.94in /  1013.8hPa East 5.0mph /  8km/h 5.0mph /  8km/h 86% 0.00in /  0mm
21:29 71.6 °F /  22 °C 67.5 °F /  19.7 °C 29.94in /  1013.8hPa East 2.0mph /  3.2km/h 5.0mph /  8km/h 87% 0.00in /  0mm
21:34 71.5 °F /  21.9 °C 67.4 °F /  19.7 °C 29.94in /  1013.8hPa East 2.0mph /  3.2km/h 6.0mph /  9.7km/h 87% 0.00in /  0mm
21:39 71.3 °F /  21.8 °C 67.2 °F /  19.6 °C 29.94in /  1013.8hPa ENE 3.0mph /  4.8km/h 5.0mph /  8km/h 87% 0.00in /  0mm
21:44 71.0 °F /  21.7 °C 66.9 °F /  19.4 °C 29.93in /  1013.4hPa East 1.0mph /  1.6km/h 6.0mph /  9.7km/h 87% 0.00in /  0mm
21:49 70.9 °F /  21.6 °C 67.2 °F /  19.6 °C 29.93in /  1013.4hPa ENE 1.0mph /  1.6km/h 4.0mph /  6.4km/h 88% 0.00in /  0mm
21:54 70.8 °F /  21.6 °C 67.1 °F /  19.5 °C 29.94in /  1013.8hPa ENE 2.0mph /  3.2km/h 4.0mph /  6.4km/h 88% 0.00in /  0mm
21:59 70.7 °F /  21.5 °C 67.0 °F /  19.4 °C 29.95in /  1014.1hPa ENE 2.0mph /  3.2km/h 4.0mph /  6.4km/h 88% 0.00in /  0mm
22:04 70.3 °F /  21.3 °C 66.6 °F /  19.2 °C 29.94in /  1013.8hPa ENE 3.0mph /  4.8km/h 8.0mph /  12.9km/h 88% 0.00in /  0mm
22:09 70.1 °F /  21.2 °C 66.4 °F /  19.1 °C 29.94in /  1013.8hPa ENE 4.0mph /  6.4km/h 8.0mph /  12.9km/h 88% 0.00in /  0mm
22:14 70.0 °F /  21.1 °C 66.3 °F /  19.1 °C 29.94in /  1013.8hPa ENE 4.0mph /  6.4km/h 8.0mph /  12.9km/h 88% 0.00in /  0mm
22:19 69.9 °F /  21.1 °C 66.2 °F /  19 °C 29.94in /  1013.8hPa NE 3.0mph /  4.8km/h 5.0mph /  8km/h 88% 0.00in /  0mm
22:29 69.7 °F /  20.9 °C 66.3 °F /  19.1 °C 29.94in /  1013.8hPa ENE 4.0mph /  6.4km/h 5.0mph /  8km/h 89% 0.00in /  0mm
22:34 69.5 °F /  20.8 °C 66.1 °F /  18.9 °C 29.94in /  1013.8hPa ENE 2.0mph /  3.2km/h 8.0mph /  12.9km/h 89% 0.00in /  0mm
22:39 69.4 °F /  20.8 °C 66.0 °F /  18.9 °C 29.95in /  1014.1hPa NE 3.0mph /  4.8km/h 7.0mph /  11.3km/h 89% 0.00in /  0mm
22:44 69.4 °F /  20.8 °C 66.0 °F /  18.9 °C 29.95in /  1014.1hPa NE 1.0mph /  1.6km/h 4.0mph /  6.4km/h 89% 0.00in /  0mm
22:49 69.4 °F /  20.8 °C 66.0 °F /  18.9 °C 29.94in /  1013.8hPa ENE 3.0mph /  4.8km/h 5.0mph /  8km/h 89% 0.00in /  0mm
22:54 69.4 °F /  20.8 °C 66.0 °F /  18.9 °C 29.95in /  1014.1hPa ENE 1.0mph /  1.6km/h 5.0mph /  8km/h 89% 0.00in /  0mm
22:59 69.4 °F /  20.8 °C 66.0 °F /  18.9 °C 29.95in /  1014.1hPa ENE 2.0mph /  3.2km/h 5.0mph /  8km/h 89% 0.00in /  0mm
23:04 69.5 °F /  20.8 °C 66.1 °F /  18.9 °C 29.94in /  1013.8hPa ENE 1.0mph /  1.6km/h 4.0mph /  6.4km/h 89% 0.00in /  0mm
23:09 69.2 °F /  20.7 °C 65.8 °F /  18.8 °C 29.94in /  1013.8hPa ENE 2.0mph /  3.2km/h 5.0mph /  8km/h 89% 0.00in /  0mm
23:14 69.0 °F /  20.6 °C 65.6 °F /  18.7 °C 29.94in /  1013.8hPa ENE 2.0mph /  3.2km/h 5.0mph /  8km/h 89% 0.00in /  0mm
23:19 69.0 °F /  20.6 °C 65.6 °F /  18.7 °C 29.94in /  1013.8hPa NE 2.0mph /  3.2km/h 3.0mph /  4.8km/h 89% 0.00in /  0mm
23:24 69.0 °F /  20.6 °C 65.9 °F /  18.8 °C 29.94in /  1013.8hPa NE 2.0mph /  3.2km/h 4.0mph /  6.4km/h 90% 0.00in /  0mm
23:29 69.1 °F /  20.6 °C 66.0 °F /  18.9 °C 29.93in /  1013.4hPa NE 2.0mph /  3.2km/h 5.0mph /  8km/h 90% 0.00in /  0mm
23:34 69.0 °F /  20.6 °C 65.9 °F /  18.8 °C 29.94in /  1013.8hPa ENE 2.0mph /  3.2km/h 5.0mph /  8km/h 90% 0.00in /  0mm
23:39 69.0 °F /  20.6 °C 65.9 °F /  18.8 °C 29.94in /  1013.8hPa ENE 1.0mph /  1.6km/h 5.0mph /  8km/h 90% 0.00in /  0mm
23:44 69.0 °F /  20.6 °C 65.9 °F /  18.8 °C 29.93in /  1013.4hPa ENE 2.0mph /  3.2km/h 4.0mph /  6.4km/h 90% 0.00in /  0mm
23:49 68.9 °F /  20.5 °C 65.8 °F /  18.8 °C 29.93in /  1013.4hPa Calm   4.0mph /  6.4km/h 90% 0.00in /  0mm
23:54 68.8 °F /  20.4 °C 65.7 °F /  18.7 °C 29.93in /  1013.4hPa ENE 1.0mph /  1.6km/h 4.0mph /  6.4km/h 90% 0.00in /  0mm
23:59 68.9 °F /  20.5 °C 65.8 °F /  18.8 °C 29.93in /  1013.4hPa Calm   2.0mph /  3.2km/h 90% 0.00in /  0mm
Buffalo, New York, USA
Compliments of Weather Underground - 2.5 mb